createdAt,value
2022-11-29T00:00:02.915Z,2.49
2022-11-29T00:05:26.233Z,2.46
2022-11-29T00:10:29.359Z,2.38
2022-11-29T00:15:36.814Z,2.31
2022-11-29T00:20:39.885Z,2.24
2022-11-29T00:25:42.584Z,2.18
2022-11-29T00:30:45.388Z,2.16
2022-11-29T00:35:48.242Z,2.13
2022-11-29T00:40:52.661Z,2.07
2022-11-29T00:45:55.455Z,2.02
2022-11-29T00:50:58.274Z,2.01
2022-11-29T00:56:01.775Z,2.00
2022-11-29T01:01:05.765Z,1.98
2022-11-29T01:06:11.409Z,1.95
2022-11-29T01:11:18.289Z,1.90
2022-11-29T01:16:21.027Z,1.85
2022-11-29T01:21:25.117Z,1.81
2022-11-29T01:26:30.265Z,1.81
2022-11-29T01:31:38.218Z,1.84
2022-11-29T01:36:41.009Z,1.83
2022-11-29T01:41:43.710Z,1.80
2022-11-29T01:46:47.811Z,1.78
2022-11-29T01:51:54.617Z,1.75
2022-11-29T01:56:59.491Z,1.69
2022-11-29T02:02:12.221Z,1.67
2022-11-29T02:07:15.853Z,1.65
2022-11-29T02:12:39.407Z,1.61
2022-11-29T02:18:02.645Z,1.57
2022-11-29T02:23:22.490Z,1.56
2022-11-29T02:29:09.767Z,1.54
2022-11-29T02:34:15.192Z,1.53
2022-11-29T02:39:42.796Z,1.54
2022-11-29T02:45:09.645Z,1.51
2022-11-29T02:50:20.184Z,1.47
2022-11-29T02:55:43.449Z,1.47
2022-11-29T03:01:16.691Z,1.46
2022-11-29T03:06:31.636Z,1.44
2022-11-29T03:12:01.960Z,1.48
2022-11-29T03:17:23.620Z,1.51
2022-11-29T03:22:29.185Z,1.51
2022-11-29T03:27:43.770Z,1.49
2022-11-29T03:32:55.506Z,1.50
2022-11-29T03:38:11.237Z,1.51
2022-11-29T03:43:21.337Z,1.49
2022-11-29T03:48:31.926Z,1.49
2022-11-29T03:53:48.026Z,1.51
2022-11-29T03:59:20.140Z,1.51
2022-11-29T04:04:50.792Z,1.47
2022-11-29T04:10:09.056Z,1.46
2022-11-29T04:15:49.982Z,1.48
2022-11-29T04:21:04.835Z,1.46
2022-11-29T04:26:45.305Z,1.42
2022-11-29T04:32:17.001Z,1.42
2022-11-29T04:37:38.435Z,1.43
2022-11-29T04:43:12.998Z,1.42
2022-11-29T04:48:24.700Z,1.43
2022-11-29T04:53:48.981Z,1.43
2022-11-29T04:59:17.912Z,1.41
2022-11-29T05:04:32.164Z,1.42
2022-11-29T05:09:59.568Z,1.44
2022-11-29T05:15:34.103Z,1.45
2022-11-29T05:21:16.955Z,1.43
2022-11-29T05:26:22.299Z,1.46
2022-11-29T05:31:29.444Z,1.48
2022-11-29T05:36:57.507Z,1.46
2022-11-29T05:42:20.221Z,1.47
2022-11-29T05:47:48.978Z,1.49
2022-11-29T05:53:02.115Z,1.52
2022-11-29T05:58:30.742Z,1.50
2022-11-29T06:03:40.676Z,1.51
2022-11-29T06:08:47.939Z,1.53
2022-11-29T06:14:20.219Z,1.55
2022-11-29T06:19:32.934Z,1.55
2022-11-29T06:25:00.048Z,1.54
2022-11-29T06:30:15.228Z,1.57
2022-11-29T06:35:36.222Z,1.60
2022-11-29T06:40:39.236Z,1.62
2022-11-29T06:45:49.136Z,1.63
2022-11-29T06:51:21.089Z,1.65
2022-11-29T06:56:41.720Z,1.71
2022-11-29T07:01:44.572Z,1.75
2022-11-29T07:06:47.950Z,1.78
2022-11-29T07:11:51.188Z,1.77
2022-11-29T07:17:21.117Z,1.79
2022-11-29T07:22:41.685Z,1.80
2022-11-29T07:28:00.811Z,1.80
2022-11-29T07:33:48.339Z,1.79
2022-11-29T07:39:09.758Z,1.77
2022-11-29T07:44:27.810Z,1.74
2022-11-29T07:49:30.615Z,1.72
2022-11-29T07:54:36.551Z,1.73
2022-11-29T07:59:41.440Z,1.75
2022-11-29T08:04:44.769Z,1.75
2022-11-29T08:09:48.706Z,1.77
2022-11-29T08:14:51.829Z,1.82
2022-11-29T08:19:54.540Z,1.86
2022-11-29T08:24:58.061Z,1.85
2022-11-29T08:30:00.782Z,1.87
2022-11-29T08:35:03.981Z,1.86
2022-11-29T08:40:07.969Z,1.84
2022-11-29T08:45:11.892Z,1.80
2022-11-29T08:50:17.899Z,1.81
2022-11-29T08:55:22.703Z,1.85
2022-11-29T09:00:25.414Z,1.87
2022-11-29T09:05:28.200Z,1.89
2022-11-29T09:10:30.912Z,1.89
2022-11-29T09:15:33.902Z,1.87
2022-11-29T09:20:37.012Z,1.88
2022-11-29T09:25:39.943Z,1.87
2022-11-29T09:30:42.622Z,1.91
2022-11-29T09:35:46.157Z,1.93
2022-11-29T09:40:54.359Z,1.91
2022-11-29T09:46:16.054Z,1.88
2022-11-29T09:51:48.818Z,1.89
2022-11-29T09:56:55.494Z,1.91
2022-11-29T10:02:38.713Z,1.88
2022-11-29T10:07:49.083Z,1.90
2022-11-29T10:13:00.365Z,1.91
2022-11-29T10:18:23.411Z,1.93
2022-11-29T10:23:58.437Z,1.97
2022-11-29T10:29:01.296Z,1.98
2022-11-29T10:34:16.664Z,1.94
2022-11-29T10:39:42.176Z,1.93
2022-11-29T10:44:45.009Z,1.92
2022-11-29T10:49:48.578Z,1.94
2022-11-29T10:54:56.311Z,1.94
2022-11-29T11:00:06.987Z,1.95
2022-11-29T11:05:18.780Z,1.99
2022-11-29T11:10:27.221Z,1.99
2022-11-29T11:15:33.915Z,1.99
2022-11-29T11:20:39.807Z,1.98
2022-11-29T11:25:42.675Z,1.99
2022-11-29T11:30:58.040Z,2.00
2022-11-29T11:36:09.745Z,1.95
2022-11-29T11:41:51.939Z,1.93
2022-11-29T11:46:55.085Z,1.96
2022-11-29T11:51:59.610Z,1.98
2022-11-29T11:57:03.369Z,1.93
2022-11-29T12:02:25.612Z,1.94
2022-11-29T12:08:06.829Z,1.91
2022-11-29T12:13:04.255Z,1.94
2022-11-29T12:18:28.184Z,1.94
2022-11-29T12:23:34.984Z,1.95
2022-11-29T12:28:40.793Z,1.95
2022-11-29T12:33:55.618Z,1.97
2022-11-29T12:39:20.268Z,1.94
2022-11-29T12:45:00.943Z,1.92
2022-11-29T12:50:38.838Z,1.87
2022-11-29T12:56:20.711Z,1.80
2022-11-29T13:01:43.836Z,1.76
2022-11-29T13:06:55.238Z,1.80
2022-11-29T13:12:03.563Z,1.81
2022-11-29T13:17:22.724Z,1.80
2022-11-29T13:22:54.292Z,1.77
2022-11-29T13:28:28.100Z,1.80
2022-11-29T13:33:40.228Z,1.84
2022-11-29T13:38:55.921Z,1.84
2022-11-29T13:44:18.085Z,1.82
2022-11-29T13:49:42.426Z,1.76
2022-11-29T13:54:45.616Z,1.74
2022-11-29T13:59:50.321Z,1.73
2022-11-29T14:04:53.284Z,1.71
2022-11-29T14:10:03.383Z,1.69
2022-11-29T14:15:35.404Z,1.71
2022-11-29T14:20:44.788Z,1.67
2022-11-29T14:25:56.445Z,1.63
2022-11-29T14:31:02.105Z,1.65
2022-11-29T14:36:14.529Z,1.66
2022-11-29T14:41:22.645Z,1.64
2022-11-29T14:46:30.987Z,1.61
2022-11-29T14:51:35.199Z,1.55
2022-11-29T14:56:44.535Z,1.50
2022-11-29T15:01:49.106Z,1.53
2022-11-29T15:06:56.087Z,1.55
2022-11-29T15:12:08.930Z,1.52
2022-11-29T15:17:32.900Z,1.43
2022-11-29T15:22:54.193Z,1.33
2022-11-29T15:27:59.799Z,1.26
2022-11-29T15:33:06.148Z,1.21
2022-11-29T15:38:18.176Z,1.20
2022-11-29T15:43:36.053Z,1.19
2022-11-29T15:48:38.791Z,1.21
2022-11-29T15:54:15.594Z,1.25
2022-11-29T15:59:30.481Z,1.23
2022-11-29T16:04:39.057Z,1.19
2022-11-29T16:09:53.272Z,1.17
2022-11-29T16:14:58.667Z,1.17
2022-11-29T16:20:06.096Z,1.18
2022-11-29T16:25:18.808Z,1.17
2022-11-29T16:30:23.947Z,1.17
2022-11-29T16:35:33.816Z,1.17
2022-11-29T16:40:36.571Z,1.17
2022-11-29T16:45:41.547Z,1.19
2022-11-29T16:50:46.197Z,1.23
2022-11-29T16:55:49.713Z,1.25
2022-11-29T17:00:52.474Z,1.24
2022-11-29T17:05:55.657Z,1.24
2022-11-29T17:10:58.435Z,1.25
2022-11-29T17:16:01.139Z,1.26
2022-11-29T17:21:04.648Z,1.25
2022-11-29T17:26:07.761Z,1.24
2022-11-29T17:31:15.936Z,1.24
2022-11-29T17:36:20.407Z,1.25
2022-11-29T17:41:25.347Z,1.23
2022-11-29T17:46:34.113Z,1.21
2022-11-29T17:51:54.309Z,1.25
2022-11-29T17:56:57.225Z,1.26
2022-11-29T18:02:02.232Z,1.23
2022-11-29T18:07:05.711Z,1.22
2022-11-29T18:12:08.973Z,1.26
2022-11-29T18:17:11.878Z,1.34
2022-11-29T18:22:14.691Z,1.39
2022-11-29T18:27:17.528Z,1.38
2022-11-29T18:32:20.331Z,1.36
2022-11-29T18:37:46.109Z,1.35
2022-11-29T18:42:45.902Z,1.34
2022-11-29T18:47:48.707Z,1.35
2022-11-29T18:52:54.268Z,1.33
2022-11-29T18:57:57.148Z,1.38
2022-11-29T19:02:59.849Z,1.41
2022-11-29T19:08:02.715Z,1.43
2022-11-29T19:13:05.680Z,1.40
2022-11-29T19:18:08.433Z,1.38
2022-11-29T19:23:11.389Z,1.38
2022-11-29T19:28:14.606Z,1.37
2022-11-29T19:33:17.558Z,1.36
2022-11-29T19:38:20.323Z,1.35
2022-11-29T19:43:23.102Z,1.37
2022-11-29T19:48:25.827Z,1.39
2022-11-29T19:53:29.679Z,1.37
2022-11-29T19:58:33.173Z,1.36
2022-11-29T20:03:35.936Z,1.39
2022-11-29T20:08:38.744Z,1.45
2022-11-29T20:13:43.355Z,1.49
2022-11-29T20:18:50.876Z,1.51
2022-11-29T20:23:58.816Z,1.49
2022-11-29T20:29:02.358Z,1.47
2022-11-29T20:34:06.760Z,1.46
2022-11-29T20:39:29.538Z,1.45
2022-11-29T20:44:54.301Z,1.40
2022-11-29T20:49:57.788Z,1.36
2022-11-29T20:55:00.890Z,1.37
2022-11-29T21:00:05.897Z,1.39
2022-11-29T21:05:09.059Z,1.38
2022-11-29T21:10:15.002Z,1.36
2022-11-29T21:15:18.432Z,1.37
2022-11-29T21:20:24.135Z,1.37
2022-11-29T21:25:53.032Z,1.34
2022-11-29T21:30:56.197Z,1.30
2022-11-29T21:35:59.066Z,1.28
2022-11-29T21:41:01.843Z,1.26
2022-11-29T21:46:04.689Z,1.23
2022-11-29T21:51:09.689Z,1.20
2022-11-29T21:56:12.502Z,1.20
2022-11-29T22:01:17.950Z,1.21
2022-11-29T22:06:24.195Z,1.19
2022-11-29T22:11:35.433Z,1.18
2022-11-29T22:16:38.554Z,1.20
2022-11-29T22:21:42.882Z,1.21
2022-11-29T22:26:46.742Z,1.21
2022-11-29T22:31:53.118Z,1.19
2022-11-29T22:36:56.060Z,1.19
2022-11-29T22:41:58.805Z,1.19
2022-11-29T22:47:01.541Z,1.17
2022-11-29T22:52:04.467Z,1.13
2022-11-29T22:57:07.316Z,1.12
2022-11-29T23:02:10.247Z,1.13
2022-11-29T23:07:13.109Z,1.15
2022-11-29T23:12:15.922Z,1.14
2022-11-29T23:17:18.666Z,1.11
2022-11-29T23:22:21.950Z,1.11
2022-11-29T23:27:24.884Z,1.15
2022-11-29T23:32:27.749Z,1.18
2022-11-29T23:37:30.530Z,1.19
2022-11-29T23:42:33.346Z,1.17
2022-11-29T23:47:36.056Z,1.17
2022-11-29T23:52:38.783Z,1.19
2022-11-29T23:57:41.543Z,1.21
